Pagina principale
METAR-TAF:

METAR-TAF

Aeroporti :

Aeroporto di Cluj-Avram Iancu

Cluj-Napoca, Romania

latitudine: 46-47N, longitudine: 023-34E, altezza: 315 m

Osservazione

Il bollettino è stato emesso 20 minuti fa, alle 14:00 UTC
Vento 10 kt da nord/nord-ovest, variando fra ovest/nord-ovest e nord
Temperature 27°C
Umidità 45%
Pressione 1016 hPa
Visibilità 10 km o più
Poco nuvoloso ad un'altezza di 6000 ft

METAR: LRCL 171400Z 34010KT 300V010 9999 FEW060 27/14 Q1016

Ora: 17:20 (14:20 UTC)

Previsione

Il bollettino è stato emesso 3 ore e 20 minuti fa, alle 11:00 UTC
Previsione valida dal 17 alle 12 UTC al 17 alle 21 UTC
Vento 3 kt da direzioni variabili
Visibilità 10 km o più
nessuna nube inferiore a 1500 m e nessun cumulonembo

TAF: LRCL 171100Z 1712/1721 VRB03KT CAVOK

Osservazioni e previsioni meteorologiche di più di 4000 aeroporti (messaggi METAR e TAF).

Le stazioni disponibili sono rappresentate dai dischi gialli e rossi sulla carta.

Puntare il mouse per vedere il nome della stazione.

Clicca sopra per visualizzare le osservazioni e previsioni meteorologiche.

Per cambiare la mappa : fare clic sui pulsanti verdi con una croce nera per ingrandire, il pulsante verde con un trattino per diminuire, o sulla freccia verde per le mappe adiacenti.


METAR-TAF: